createdAt,value
2024-05-09T00:00:22.088Z,971.17
2024-05-09T00:01:15.247Z,971.16
2024-05-09T00:02:15.172Z,971.14
2024-05-09T00:03:15.237Z,971.14
2024-05-09T00:04:15.160Z,971.14
2024-05-09T00:05:15.313Z,971.14
2024-05-09T00:06:15.125Z,971.14
2024-05-09T00:07:15.102Z,971.15
2024-05-09T00:08:15.149Z,971.15
2024-05-09T00:09:15.117Z,971.15
2024-05-09T00:10:22.694Z,971.17
2024-05-09T00:11:15.170Z,971.18
2024-05-09T00:12:15.155Z,971.19
2024-05-09T00:13:15.061Z,971.21
2024-05-09T00:14:15.101Z,971.22
2024-05-09T00:15:15.028Z,971.23
2024-05-09T00:16:15.011Z,971.23
2024-05-09T00:17:15.104Z,971.23
2024-05-09T00:18:15.130Z,971.22
2024-05-09T00:19:15.197Z,971.21
2024-05-09T00:20:20.495Z,971.20
2024-05-09T00:21:15.034Z,971.18
2024-05-09T00:22:14.960Z,971.18
2024-05-09T00:23:15.045Z,971.16
2024-05-09T00:24:14.922Z,971.15
2024-05-09T00:25:14.918Z,971.14
2024-05-09T00:26:14.959Z,971.13
2024-05-09T00:27:14.905Z,971.13
2024-05-09T00:28:14.904Z,971.12
2024-05-09T00:29:14.920Z,971.12
2024-05-09T00:30:24.126Z,971.10
2024-05-09T00:31:14.846Z,971.10
2024-05-09T00:32:14.915Z,971.09
2024-05-09T00:33:15.063Z,971.09
2024-05-09T00:34:14.949Z,971.10
2024-05-09T00:35:14.913Z,971.10
2024-05-09T00:36:14.823Z,971.10
2024-05-09T00:37:14.796Z,971.09
2024-05-09T00:38:14.859Z,971.09
2024-05-09T00:39:14.816Z,971.08
2024-05-09T00:40:22.490Z,971.07
2024-05-09T00:41:17.132Z,971.05
2024-05-09T00:42:14.774Z,971.03
2024-05-09T00:43:15.375Z,971.02
2024-05-09T00:44:14.795Z,971.00
2024-05-09T00:45:14.698Z,971.00
2024-05-09T00:46:14.693Z,970.99
2024-05-09T00:47:14.957Z,971.00
2024-05-09T00:48:17.548Z,971.00
2024-05-09T00:49:14.971Z,971.01
2024-05-09T00:50:19.407Z,971.01
2024-05-09T00:51:14.907Z,971.01
2024-05-09T00:52:14.618Z,971.00
2024-05-09T00:53:14.952Z,971.00
2024-05-09T00:54:14.592Z,970.98
2024-05-09T00:55:14.613Z,970.97
2024-05-09T00:56:14.637Z,970.98
2024-05-09T00:57:14.567Z,970.97
2024-05-09T00:58:14.560Z,970.97
2024-05-09T00:59:14.615Z,970.97
2024-05-09T01:00:22.674Z,970.97
2024-05-09T01:01:14.578Z,970.98
2024-05-09T01:02:14.563Z,970.98
2024-05-09T01:03:14.848Z,970.99
2024-05-09T01:04:14.533Z,970.99
2024-05-09T01:05:14.661Z,970.99
2024-05-09T01:06:14.476Z,970.99
2024-05-09T01:07:14.472Z,970.99
2024-05-09T01:08:14.514Z,970.97
2024-05-09T01:09:14.467Z,970.96
2024-05-09T01:10:21.152Z,970.96
2024-05-09T01:11:14.592Z,970.95
2024-05-09T01:12:14.562Z,970.93
2024-05-09T01:13:14.406Z,970.93
2024-05-09T01:14:14.435Z,970.92
2024-05-09T01:15:14.396Z,970.91
2024-05-09T01:16:14.360Z,970.91
2024-05-09T01:17:14.412Z,970.91
2024-05-09T01:18:14.598Z,970.90
2024-05-09T01:19:14.601Z,970.89
2024-05-09T01:20:20.174Z,970.89
2024-05-09T01:21:14.505Z,970.89
2024-05-09T01:22:14.356Z,970.88
2024-05-09T01:23:16.037Z,970.88
2024-05-09T01:24:14.300Z,970.89
2024-05-09T01:25:14.273Z,970.90
2024-05-09T01:26:14.366Z,970.90
2024-05-09T01:27:14.305Z,970.91
2024-05-09T01:28:14.297Z,970.93
2024-05-09T01:29:14.265Z,970.94
2024-05-09T01:30:17.454Z,970.95
2024-05-09T01:31:14.226Z,970.95
2024-05-09T01:32:14.306Z,970.96
2024-05-09T01:33:14.563Z,970.95
2024-05-09T01:34:14.208Z,970.95
2024-05-09T01:35:14.235Z,970.93
2024-05-09T01:36:14.255Z,970.93
2024-05-09T01:37:14.176Z,970.92
2024-05-09T01:38:14.367Z,970.91
2024-05-09T01:39:14.155Z,970.90
2024-05-09T01:40:18.579Z,970.90
2024-05-09T01:41:14.181Z,970.89
2024-05-09T01:42:14.122Z,970.88
2024-05-09T01:43:14.085Z,970.89
2024-05-09T01:44:14.982Z,970.88
2024-05-09T01:45:14.077Z,970.89
2024-05-09T01:46:14.053Z,970.88
2024-05-09T01:47:14.128Z,970.90
2024-05-09T01:48:14.143Z,970.91
2024-05-09T01:49:14.251Z,970.93
2024-05-09T01:51:14.044Z,970.95
2024-05-09T01:52:14.015Z,970.94
2024-05-09T01:53:14.904Z,970.95
2024-05-09T01:54:14.014Z,970.96
2024-05-09T01:55:13.961Z,970.96
2024-05-09T01:56:13.996Z,970.97
2024-05-09T01:57:13.948Z,970.97
2024-05-09T01:58:13.936Z,970.95
2024-05-09T01:59:13.976Z,970.95
2024-05-09T02:00:19.014Z,970.93
2024-05-09T02:01:13.975Z,970.92
2024-05-09T02:02:14.095Z,970.93
2024-05-09T02:03:16.556Z,970.93
2024-05-09T02:04:14.227Z,970.94
2024-05-09T02:05:14.078Z,970.95
2024-05-09T02:06:13.903Z,970.95
2024-05-09T02:07:13.829Z,970.98
2024-05-09T02:08:14.596Z,970.97
2024-05-09T02:09:13.806Z,970.98
2024-05-09T02:10:20.355Z,970.99
2024-05-09T02:11:13.873Z,970.98
2024-05-09T02:12:13.904Z,970.99
2024-05-09T02:13:13.784Z,970.98
2024-05-09T02:14:13.809Z,970.98
2024-05-09T02:15:13.754Z,970.98
2024-05-09T02:16:13.734Z,970.98
2024-05-09T02:17:13.854Z,970.98
2024-05-09T02:18:14.304Z,970.98
2024-05-09T02:19:13.891Z,970.97
2024-05-09T02:20:22.413Z,970.96
2024-05-09T02:21:13.746Z,970.95
2024-05-09T02:22:13.685Z,970.93
2024-05-09T02:23:13.877Z,970.94
2024-05-09T02:24:13.684Z,970.93
2024-05-09T02:25:13.659Z,970.91
2024-05-09T02:26:13.720Z,970.90
2024-05-09T02:27:13.622Z,970.88
2024-05-09T02:28:13.606Z,970.86
2024-05-09T02:29:13.647Z,970.86
2024-05-09T02:30:22.386Z,970.85
2024-05-09T02:31:13.623Z,970.84
2024-05-09T02:32:13.653Z,970.84
2024-05-09T02:33:14.561Z,970.84
2024-05-09T02:34:13.716Z,970.84
2024-05-09T02:35:13.580Z,970.84
2024-05-09T02:36:13.530Z,970.84
2024-05-09T02:37:13.503Z,970.84
2024-05-09T02:38:13.846Z,970.84
2024-05-09T02:39:13.505Z,970.84
2024-05-09T02:40:15.031Z,970.84
2024-05-09T02:41:13.529Z,970.84
2024-05-09T02:42:13.457Z,970.84
2024-05-09T02:43:13.483Z,970.84
2024-05-09T02:44:13.481Z,970.85
2024-05-09T02:45:13.432Z,970.87
2024-05-09T02:46:13.432Z,970.88
2024-05-09T02:47:13.521Z,970.89
2024-05-09T02:48:14.281Z,970.90
2024-05-09T02:49:13.577Z,970.90
2024-05-09T02:50:16.238Z,970.91
2024-05-09T02:51:13.461Z,970.91
2024-05-09T02:52:13.373Z,970.91
2024-05-09T02:53:14.089Z,970.92
2024-05-09T02:54:13.368Z,970.92
2024-05-09T02:55:13.326Z,970.93
2024-05-09T02:56:13.385Z,970.93
2024-05-09T02:57:13.636Z,970.93
2024-05-09T02:58:13.325Z,970.94
2024-05-09T02:59:13.352Z,970.95
2024-05-09T03:00:19.037Z,970.95
2024-05-09T03:01:13.326Z,970.97
2024-05-09T03:02:13.404Z,970.97
2024-05-09T03:03:15.282Z,970.99
2024-05-09T03:04:13.296Z,970.99
2024-05-09T03:05:13.256Z,970.99
2024-05-09T03:06:13.242Z,970.99
2024-05-09T03:07:13.238Z,970.99
2024-05-09T03:08:13.404Z,970.99
2024-05-09T03:09:13.190Z,971.00
2024-05-09T03:10:18.609Z,970.99
2024-05-09T03:11:13.266Z,971.00
2024-05-09T03:12:13.318Z,970.99
2024-05-09T03:13:14.635Z,971.00
2024-05-09T03:14:13.136Z,971.00
2024-05-09T03:15:13.059Z,971.00
2024-05-09T03:16:13.072Z,971.00
2024-05-09T03:17:13.132Z,971.00
2024-05-09T03:18:13.580Z,971.00
2024-05-09T03:19:13.107Z,971.00
2024-05-09T03:20:20.501Z,971.00
2024-05-09T03:21:13.034Z,971.00
2024-05-09T03:22:12.997Z,971.01
2024-05-09T03:23:13.114Z,971.01
2024-05-09T03:24:12.985Z,971.01
2024-05-09T03:25:12.978Z,971.01
2024-05-09T03:26:13.010Z,971.02
2024-05-09T03:27:12.963Z,971.02
2024-05-09T03:28:12.947Z,971.02
2024-05-09T03:29:12.967Z,971.02
2024-05-09T03:30:25.604Z,971.00
2024-05-09T03:31:12.899Z,971.00
2024-05-09T03:32:12.955Z,970.99
2024-05-09T03:33:14.135Z,970.97
2024-05-09T03:34:12.894Z,970.96
2024-05-09T03:35:13.009Z,970.95
2024-05-09T03:36:12.845Z,970.94
2024-05-09T03:37:12.822Z,970.93
2024-05-09T03:38:13.042Z,970.92
2024-05-09T03:39:12.824Z,970.90
2024-05-09T03:40:20.267Z,970.90
2024-05-09T03:41:12.829Z,970.89
2024-05-09T03:42:12.804Z,970.88
2024-05-09T03:43:12.814Z,970.88
2024-05-09T03:44:12.783Z,970.89
2024-05-09T03:45:12.760Z,970.89
2024-05-09T03:46:12.744Z,970.89
2024-05-09T03:47:12.823Z,970.90
2024-05-09T03:48:13.216Z,970.89
2024-05-09T03:49:12.817Z,970.89
2024-05-09T03:50:18.516Z,970.89
2024-05-09T03:51:12.879Z,970.88
2024-05-09T03:52:12.716Z,970.90
2024-05-09T03:53:12.873Z,970.90
2024-05-09T03:54:12.699Z,970.90
2024-05-09T03:55:12.675Z,970.90
2024-05-09T03:56:12.736Z,970.90
2024-05-09T03:57:12.654Z,970.89
2024-05-09T03:58:12.640Z,970.88
2024-05-09T03:59:12.708Z,970.89
2024-05-09T04:00:18.181Z,970.89
2024-05-09T04:01:12.678Z,970.89
2024-05-09T04:02:12.641Z,970.89
2024-05-09T04:03:13.485Z,970.90
2024-05-09T04:04:12.610Z,970.91
2024-05-09T04:05:12.624Z,970.92
2024-05-09T04:06:12.673Z,970.93
2024-05-09T04:07:12.515Z,970.95
2024-05-09T04:08:12.683Z,970.95
2024-05-09T04:09:12.554Z,970.97
2024-05-09T04:10:21.024Z,970.97
2024-05-09T04:11:12.724Z,970.97
2024-05-09T04:12:12.652Z,970.98
2024-05-09T04:13:12.502Z,970.98
2024-05-09T04:14:12.683Z,970.98
2024-05-09T04:15:13.685Z,970.98
2024-05-09T04:16:12.494Z,970.99
2024-05-09T04:17:12.487Z,970.99
2024-05-09T04:18:12.702Z,970.98
2024-05-09T04:19:12.491Z,970.99
2024-05-09T04:20:21.464Z,970.99
2024-05-09T04:21:12.409Z,971.00
2024-05-09T04:22:12.376Z,970.99
2024-05-09T04:23:13.081Z,971.00
2024-05-09T04:24:12.410Z,971.00
2024-05-09T04:25:12.319Z,971.00
2024-05-09T04:26:12.405Z,971.00
2024-05-09T04:27:12.317Z,970.99
2024-05-09T04:28:12.304Z,971.00
2024-05-09T04:29:12.329Z,970.99
2024-05-09T04:30:18.526Z,970.99
2024-05-09T04:31:12.282Z,970.99
2024-05-09T04:32:12.327Z,970.98
2024-05-09T04:33:14.004Z,970.97
2024-05-09T04:34:12.400Z,970.98
2024-05-09T04:35:12.292Z,970.97
2024-05-09T04:36:12.242Z,970.97
2024-05-09T04:37:12.199Z,970.97
2024-05-09T04:38:12.368Z,970.97
2024-05-09T04:39:12.191Z,970.96
2024-05-09T04:40:24.007Z,970.97
2024-05-09T04:41:12.235Z,970.97
2024-05-09T04:42:12.208Z,970.97
2024-05-09T04:43:12.153Z,970.97
2024-05-09T04:44:12.247Z,970.97
2024-05-09T04:45:12.137Z,970.98
2024-05-09T04:46:12.152Z,970.99
2024-05-09T04:47:12.220Z,970.99
2024-05-09T04:48:12.347Z,971.00
2024-05-09T04:49:12.165Z,971.00
2024-05-09T04:50:17.701Z,971.01
2024-05-09T04:51:12.281Z,971.01
2024-05-09T04:52:12.471Z,971.01
2024-05-09T04:53:12.327Z,971.02
2024-05-09T04:54:22.221Z,971.04
2024-05-09T04:55:12.085Z,971.05
2024-05-09T04:56:12.123Z,971.07
2024-05-09T04:57:11.999Z,971.08
2024-05-09T04:58:12.209Z,971.10
2024-05-09T04:59:12.074Z,971.09
2024-05-09T05:00:14.939Z,971.10
2024-05-09T05:01:12.026Z,971.10
2024-05-09T05:02:12.014Z,971.10
2024-05-09T05:03:14.628Z,971.10
2024-05-09T05:04:12.114Z,971.09
2024-05-09T05:05:12.265Z,971.08
2024-05-09T05:06:11.947Z,971.07
2024-05-09T05:07:11.992Z,971.07
2024-05-09T05:08:11.933Z,971.06
2024-05-09T05:09:11.878Z,971.05
2024-05-09T05:10:14.834Z,971.05
2024-05-09T05:11:11.917Z,971.05
2024-05-09T05:12:11.898Z,971.05
2024-05-09T05:13:11.968Z,971.05
2024-05-09T05:14:11.914Z,971.05
2024-05-09T05:15:11.907Z,971.06
2024-05-09T05:16:11.931Z,971.05
2024-05-09T05:17:11.888Z,971.05
2024-05-09T05:18:11.867Z,971.05
2024-05-09T05:19:15.131Z,971.05
2024-05-09T05:20:15.244Z,971.05
2024-05-09T05:21:11.761Z,971.05
2024-05-09T05:22:11.764Z,971.05
2024-05-09T05:23:11.969Z,971.05
2024-05-09T05:24:11.706Z,971.04
2024-05-09T05:25:11.725Z,971.04
2024-05-09T05:26:11.766Z,971.04
2024-05-09T05:27:11.699Z,971.04
2024-05-09T05:28:11.680Z,971.06
2024-05-09T05:29:11.731Z,971.07
2024-05-09T05:30:17.867Z,971.08
2024-05-09T05:31:11.646Z,971.08
2024-05-09T05:32:11.886Z,971.08
2024-05-09T05:33:11.824Z,971.08
2024-05-09T05:34:11.665Z,971.07
2024-05-09T05:35:11.632Z,971.07
2024-05-09T05:36:11.576Z,971.08
2024-05-09T05:37:11.575Z,971.07
2024-05-09T05:38:11.690Z,971.07
2024-05-09T05:39:11.552Z,971.07
2024-05-09T05:40:14.667Z,971.05
2024-05-09T05:41:11.583Z,971.05
2024-05-09T05:42:11.518Z,971.05
2024-05-09T05:43:11.503Z,971.05
2024-05-09T05:44:11.507Z,971.05
2024-05-09T05:45:11.525Z,971.06
2024-05-09T05:46:11.511Z,971.08
2024-05-09T05:47:11.519Z,971.08
2024-05-09T05:48:11.673Z,971.09
2024-05-09T05:49:11.598Z,971.10
2024-05-09T05:50:20.781Z,971.10
2024-05-09T05:51:11.508Z,971.10
2024-05-09T05:52:11.421Z,971.10
2024-05-09T05:53:11.463Z,971.11
2024-05-09T05:54:11.400Z,971.11
2024-05-09T05:55:11.408Z,971.12
2024-05-09T05:56:11.491Z,971.12
2024-05-09T05:57:11.372Z,971.14
2024-05-09T05:58:11.381Z,971.15
2024-05-09T05:59:14.037Z,971.16
2024-05-09T06:00:15.095Z,971.16
2024-05-09T06:01:11.337Z,971.17
2024-05-09T06:02:11.388Z,971.17
2024-05-09T06:03:11.703Z,971.18
2024-05-09T06:04:11.337Z,971.17
2024-05-09T06:05:11.408Z,971.16
2024-05-09T06:06:11.282Z,971.17
2024-05-09T06:07:11.250Z,971.18
2024-05-09T06:08:11.314Z,971.19
2024-05-09T06:09:11.249Z,971.18
2024-05-09T06:10:17.384Z,971.19
2024-05-09T06:11:11.281Z,971.19
2024-05-09T06:12:11.336Z,971.18
2024-05-09T06:13:11.848Z,971.19
2024-05-09T06:14:11.223Z,971.20
2024-05-09T06:15:11.176Z,971.20
2024-05-09T06:16:11.174Z,971.20
2024-05-09T06:17:11.325Z,971.20
2024-05-09T06:18:12.338Z,971.18
2024-05-09T06:19:11.249Z,971.20
2024-05-09T06:20:20.172Z,971.18
2024-05-09T06:21:11.186Z,971.18
2024-05-09T06:22:11.108Z,971.15
2024-05-09T06:23:11.221Z,971.15
2024-05-09T06:24:11.080Z,971.15
2024-05-09T06:25:11.092Z,971.16
2024-05-09T06:26:11.097Z,971.17
2024-05-09T06:27:11.052Z,971.19
2024-05-09T06:28:11.072Z,971.18
2024-05-09T06:29:11.059Z,971.19
2024-05-09T06:30:21.151Z,971.24
2024-05-09T06:31:10.996Z,971.30
2024-05-09T06:32:11.057Z,971.21
2024-05-09T06:33:13.041Z,971.22
2024-05-09T06:34:11.040Z,971.20
2024-05-09T06:35:10.996Z,971.21
2024-05-09T06:36:10.952Z,971.23
2024-05-09T06:37:10.930Z,971.21
2024-05-09T06:38:11.607Z,971.22
2024-05-09T06:39:10.938Z,971.35
2024-05-09T06:40:12.549Z,971.25
2024-05-09T06:41:10.931Z,971.28
2024-05-09T06:42:11.030Z,971.25
2024-05-09T06:43:11.061Z,971.23
2024-05-09T06:44:10.935Z,971.26
2024-05-09T06:45:10.853Z,971.26
2024-05-09T06:46:10.998Z,971.29
2024-05-09T06:47:10.868Z,971.28
2024-05-09T06:48:11.049Z,971.27
2024-05-09T06:49:10.923Z,971.29
2024-05-09T06:50:16.504Z,971.29
2024-05-09T06:51:10.871Z,971.31
2024-05-09T06:52:10.784Z,971.34
2024-05-09T06:53:10.794Z,971.29
2024-05-09T06:54:10.752Z,971.31
2024-05-09T06:55:10.740Z,971.28
2024-05-09T06:56:10.757Z,971.27
2024-05-09T06:57:10.752Z,971.28
2024-05-09T06:58:10.708Z,971.28
2024-05-09T06:59:10.784Z,971.27
2024-05-09T07:00:15.631Z,971.27
2024-05-09T07:01:10.729Z,971.25
2024-05-09T07:02:10.854Z,971.26
2024-05-09T07:03:11.636Z,971.25
2024-05-09T07:04:10.793Z,971.26
2024-05-09T07:05:11.301Z,971.24
2024-05-09T07:06:10.769Z,971.23
2024-05-09T07:07:10.628Z,971.22
2024-05-09T07:08:10.729Z,971.25
2024-05-09T07:09:10.664Z,971.27
2024-05-09T07:10:17.760Z,971.18
2024-05-09T07:11:10.737Z,971.21
2024-05-09T07:12:10.737Z,971.19
2024-05-09T07:13:10.687Z,971.21
2024-05-09T07:14:10.606Z,971.21
2024-05-09T07:15:10.564Z,971.22
2024-05-09T07:16:10.535Z,971.23
2024-05-09T07:17:10.672Z,971.24
2024-05-09T07:18:10.706Z,971.27
2024-05-09T07:19:10.586Z,971.25
2024-05-09T07:20:16.188Z,971.26
2024-05-09T07:21:10.625Z,971.25
2024-05-09T07:22:10.457Z,971.24
2024-05-09T07:23:10.734Z,971.29
2024-05-09T07:24:10.485Z,971.28
2024-05-09T07:25:10.449Z,971.27
2024-05-09T07:26:10.472Z,971.22
2024-05-09T07:27:10.414Z,971.25
2024-05-09T07:28:10.400Z,971.28
2024-05-09T07:29:10.446Z,971.23
2024-05-09T07:31:10.375Z,971.21
2024-05-09T07:32:10.381Z,971.20
2024-05-09T07:33:10.516Z,971.17
2024-05-09T07:34:10.474Z,971.17
2024-05-09T07:35:10.376Z,971.20
2024-05-09T07:36:10.296Z,971.17
2024-05-09T07:37:10.314Z,971.19
2024-05-09T07:38:10.394Z,971.19
2024-05-09T07:39:10.328Z,971.16
2024-05-09T07:41:10.270Z,971.22
2024-05-09T07:42:10.251Z,971.21
2024-05-09T07:43:10.259Z,971.20
2024-05-09T07:44:10.274Z,971.25
2024-05-09T07:45:29.637Z,971.17
2024-05-09T07:47:13.925Z,971.18
2024-05-09T07:50:34.109Z,971.15
2024-05-09T07:53:32.440Z,971.12
2024-05-09T07:53:49.312Z,971.07
2024-05-09T07:54:00.450Z,971.08
2024-05-09T07:54:56.314Z,971.10
2024-05-09T07:55:56.733Z,971.09
2024-05-09T07:56:56.367Z,971.09
2024-05-09T07:57:56.033Z,971.17
2024-05-09T07:58:56.379Z,971.12
2024-05-09T07:59:55.970Z,971.16
2024-05-09T08:00:56.097Z,971.21
2024-05-09T08:01:56.195Z,971.13
2024-05-09T08:02:56.006Z,971.11
2024-05-09T08:03:56.271Z,971.12
2024-05-09T08:04:56.060Z,971.10
2024-05-09T08:05:55.930Z,971.13
2024-05-09T08:06:55.959Z,971.15
2024-05-09T08:07:55.878Z,971.15
2024-05-09T08:08:56.807Z,971.10
2024-05-09T08:09:55.915Z,971.08
2024-05-09T08:10:55.930Z,971.06
2024-05-09T08:11:55.940Z,971.05
2024-05-09T08:12:55.908Z,971.02
2024-05-09T08:13:55.817Z,971.03
2024-05-09T08:14:55.831Z,971.06
2024-05-09T08:15:55.909Z,971.02
2024-05-09T08:16:55.827Z,971.01
2024-05-09T08:17:56.132Z,970.98
2024-05-09T08:18:55.969Z,970.97
2024-05-09T08:19:55.752Z,970.98
2024-05-09T08:20:55.770Z,970.98
2024-05-09T08:21:55.878Z,971.00
2024-05-09T08:22:55.730Z,971.01
2024-05-09T08:23:55.699Z,970.99
2024-05-09T08:24:55.805Z,971.04
2024-05-09T08:25:55.809Z,970.99
2024-05-09T08:26:55.678Z,970.95
2024-05-09T08:27:55.755Z,970.97
2024-05-09T08:28:55.707Z,970.97
2024-05-09T08:29:55.725Z,970.94
2024-05-09T08:30:55.819Z,970.93
2024-05-09T08:31:55.806Z,970.90
2024-05-09T08:32:55.798Z,970.89
2024-05-09T08:33:55.801Z,970.90
2024-05-09T08:34:55.859Z,970.90
2024-05-09T08:35:55.582Z,970.94
2024-05-09T08:36:57.557Z,970.85
2024-05-09T08:37:55.783Z,970.87
2024-05-09T08:38:55.551Z,970.90
2024-05-09T08:39:55.717Z,970.90
2024-05-09T08:40:55.629Z,970.85
2024-05-09T08:41:55.545Z,970.86
2024-05-09T08:42:55.595Z,970.87
2024-05-09T08:43:55.536Z,970.80
2024-05-09T08:44:55.506Z,970.85
2024-05-09T08:45:55.522Z,970.78
2024-05-09T08:46:55.497Z,970.82
2024-05-09T08:47:55.638Z,970.85
2024-05-09T08:48:55.662Z,970.81
2024-05-09T08:49:55.514Z,970.82
2024-05-09T08:50:55.519Z,970.78
2024-05-09T08:51:55.453Z,970.79
2024-05-09T08:52:55.425Z,970.84
2024-05-09T08:53:55.407Z,970.91
2024-05-09T08:54:55.449Z,970.88
2024-05-09T08:55:55.396Z,970.91
2024-05-09T08:56:55.364Z,971.02
2024-05-09T08:57:55.458Z,970.92
2024-05-09T08:58:55.363Z,970.94
2024-05-09T08:59:55.323Z,970.92
2024-05-09T09:00:55.514Z,971.05
2024-05-09T09:01:55.544Z,970.96
2024-05-09T09:02:55.354Z,970.91
2024-05-09T09:03:55.486Z,970.87
2024-05-09T09:04:55.403Z,970.88
2024-05-09T09:05:55.274Z,970.87
2024-05-09T09:06:58.185Z,970.93
2024-05-09T09:07:55.273Z,970.89
2024-05-09T09:08:55.242Z,970.92
2024-05-09T09:09:55.328Z,970.89
2024-05-09T09:10:55.306Z,970.88
2024-05-09T09:11:55.316Z,970.90
2024-05-09T09:12:55.257Z,970.91
2024-05-09T09:13:55.178Z,970.90
2024-05-09T09:14:55.170Z,970.87
2024-05-09T09:15:55.194Z,970.88
2024-05-09T09:16:55.183Z,970.86
2024-05-09T09:17:55.348Z,970.84
2024-05-09T09:18:55.426Z,970.86
2024-05-09T09:19:55.228Z,970.88
2024-05-09T09:20:55.310Z,970.88
2024-05-09T09:21:55.161Z,970.86
2024-05-09T09:22:55.113Z,970.87
2024-05-09T09:23:55.064Z,970.87
2024-05-09T09:24:55.229Z,970.86
2024-05-09T09:25:55.046Z,970.96
2024-05-09T09:26:55.070Z,970.87
2024-05-09T09:27:55.214Z,970.88
2024-05-09T09:28:55.025Z,970.86
2024-05-09T09:29:55.020Z,970.86
2024-05-09T09:30:55.087Z,970.89
2024-05-09T09:31:55.003Z,970.89
2024-05-09T09:32:55.158Z,970.92
2024-05-09T09:33:55.258Z,970.90
2024-05-09T09:34:55.174Z,970.96
2024-05-09T09:35:55.057Z,970.88
2024-05-09T09:36:55.097Z,970.87
2024-05-09T09:37:54.974Z,970.86
2024-05-09T09:38:55.012Z,970.83
2024-05-09T09:39:54.958Z,970.84
2024-05-09T09:40:54.988Z,971.08
2024-05-09T09:41:54.930Z,970.89
2024-05-09T09:42:54.962Z,970.91
2024-05-09T09:43:54.865Z,970.90
2024-05-09T09:45:03.780Z,970.97
2024-05-09T09:45:55.015Z,970.87
2024-05-09T09:46:54.927Z,970.87
2024-05-09T09:47:54.944Z,970.93
2024-05-09T09:48:54.983Z,970.94
2024-05-09T09:49:54.893Z,970.86
2024-05-09T09:50:54.800Z,970.86
2024-05-09T09:51:54.862Z,970.89
2024-05-09T09:52:54.785Z,970.85
2024-05-09T09:53:54.759Z,970.89
2024-05-09T09:54:55.119Z,970.90
2024-05-09T09:55:54.734Z,970.92
2024-05-09T09:56:54.722Z,970.90
2024-05-09T09:57:54.860Z,970.85
2024-05-09T09:58:54.743Z,970.85
2024-05-09T09:59:54.731Z,970.84
2024-05-09T10:00:54.859Z,970.84
2024-05-09T10:01:54.717Z,970.83
2024-05-09T10:02:54.782Z,970.86
2024-05-09T10:03:54.819Z,970.89
2024-05-09T10:04:54.806Z,970.94
2024-05-09T10:05:54.812Z,970.84
2024-05-09T10:06:54.728Z,970.83
2024-05-09T10:07:54.619Z,970.85
2024-05-09T10:08:54.610Z,970.86
2024-05-09T10:09:54.621Z,970.88
2024-05-09T10:10:54.764Z,970.80
2024-05-09T10:11:59.871Z,970.81
2024-05-09T10:12:54.712Z,970.81
2024-05-09T10:13:54.583Z,970.76
2024-05-09T10:14:54.553Z,970.78
2024-05-09T10:15:54.849Z,970.77
2024-05-09T10:16:54.535Z,970.79
2024-05-09T10:17:54.751Z,970.83
2024-05-09T10:18:54.688Z,970.81
2024-05-09T10:19:54.576Z,970.80
2024-05-09T10:20:54.503Z,970.76
2024-05-09T10:21:54.557Z,970.78
2024-05-09T10:22:54.481Z,970.77
2024-05-09T10:23:54.463Z,970.76
2024-05-09T10:24:54.542Z,970.76
2024-05-09T10:25:54.449Z,970.74
2024-05-09T10:26:54.435Z,970.76
2024-05-09T10:27:54.531Z,970.78
2024-05-09T10:28:54.410Z,970.81
2024-05-09T10:29:54.422Z,970.77
2024-05-09T10:30:54.431Z,970.76
2024-05-09T10:31:54.461Z,970.74
2024-05-09T10:32:54.458Z,970.75
2024-05-09T10:33:54.659Z,970.73
2024-05-09T10:34:54.383Z,970.77
2024-05-09T10:35:54.334Z,970.76
2024-05-09T10:36:54.485Z,970.71
2024-05-09T10:37:54.320Z,970.67
2024-05-09T10:38:54.306Z,970.68
2024-05-09T10:39:54.302Z,970.64
2024-05-09T10:40:54.327Z,970.64
2024-05-09T10:41:54.295Z,970.67
2024-05-09T10:42:54.328Z,970.66
2024-05-09T10:43:55.182Z,970.68
2024-05-09T10:44:54.239Z,970.65
2024-05-09T10:45:54.302Z,970.72
2024-05-09T10:46:54.340Z,970.73
2024-05-09T10:47:54.514Z,970.67
2024-05-09T10:48:54.414Z,970.66
2024-05-09T10:49:54.297Z,970.66
2024-05-09T10:50:54.170Z,970.64
2024-05-09T10:51:54.277Z,970.66
2024-05-09T10:52:54.140Z,970.62
2024-05-09T10:53:54.131Z,970.59
2024-05-09T10:54:54.250Z,970.55
2024-05-09T10:55:54.138Z,970.54
2024-05-09T10:56:54.092Z,970.54
2024-05-09T10:57:54.193Z,970.52
2024-05-09T10:58:54.062Z,970.58
2024-05-09T10:59:54.083Z,970.53
2024-05-09T11:00:54.246Z,970.57
2024-05-09T11:01:54.201Z,970.54
2024-05-09T11:02:54.100Z,970.51
2024-05-09T11:03:54.233Z,970.51
2024-05-09T11:04:54.230Z,970.50
2024-05-09T11:05:54.131Z,970.47
2024-05-09T11:06:54.038Z,970.45
2024-05-09T11:07:54.055Z,970.43
2024-05-09T11:08:53.972Z,970.42
2024-05-09T11:09:54.005Z,970.45
2024-05-09T11:10:54.125Z,970.43
2024-05-09T11:11:53.976Z,970.41
2024-05-09T11:12:53.966Z,970.44
2024-05-09T11:13:53.932Z,970.38
2024-05-09T11:14:53.959Z,970.41
2024-05-09T11:15:53.992Z,970.41
2024-05-09T11:16:53.903Z,970.44
2024-05-09T11:17:53.955Z,970.44
2024-05-09T11:18:54.059Z,970.42
2024-05-09T11:19:53.928Z,970.40
2024-05-09T11:20:53.866Z,970.39
2024-05-09T11:21:53.890Z,970.40
2024-05-09T11:22:53.834Z,970.37
2024-05-09T11:23:53.831Z,970.34
2024-05-09T11:24:53.882Z,970.36
2024-05-09T11:25:53.811Z,970.35
2024-05-09T11:26:53.788Z,970.34
2024-05-09T11:27:53.853Z,970.29
2024-05-09T11:28:53.761Z,970.26
2024-05-09T11:29:53.754Z,970.26
2024-05-09T11:30:53.774Z,970.32
2024-05-09T11:31:53.803Z,970.29
2024-05-09T11:32:53.814Z,970.26
2024-05-09T11:33:53.870Z,970.29
2024-05-09T11:34:53.703Z,970.25
2024-05-09T11:35:53.685Z,970.24
2024-05-09T11:36:53.748Z,970.26
2024-05-09T11:37:53.712Z,970.25
2024-05-09T11:38:53.635Z,970.24
2024-05-09T11:39:53.742Z,970.23
2024-05-09T11:40:53.699Z,970.25
2024-05-09T11:41:53.653Z,970.27
2024-05-09T11:42:53.760Z,970.25
2024-05-09T11:43:53.589Z,970.25
2024-05-09T11:44:53.690Z,970.28
2024-05-09T11:45:53.710Z,970.25
2024-05-09T11:46:53.595Z,970.30
2024-05-09T11:47:53.693Z,970.31
2024-05-09T11:48:53.833Z,970.25
2024-05-09T11:49:53.622Z,970.25
2024-05-09T11:50:53.602Z,970.26
2024-05-09T11:51:53.610Z,970.23
2024-05-09T11:52:53.508Z,970.26
2024-05-09T11:53:53.541Z,970.19
2024-05-09T11:54:53.556Z,970.18
2024-05-09T11:55:53.507Z,970.16
2024-05-09T11:56:53.496Z,970.16
2024-05-09T11:57:53.524Z,970.16
2024-05-09T11:58:53.431Z,970.14
2024-05-09T11:59:53.434Z,970.12
2024-05-09T12:00:53.567Z,970.06
2024-05-09T12:01:53.611Z,970.09
2024-05-09T12:02:53.452Z,970.10
2024-05-09T12:03:53.632Z,970.10
2024-05-09T12:04:53.556Z,970.05
2024-05-09T12:05:53.429Z,970.02
2024-05-09T12:06:53.454Z,970.00
2024-05-09T12:07:53.375Z,969.98
2024-05-09T12:08:53.370Z,970.04
2024-05-09T12:09:53.357Z,969.97
2024-05-09T12:10:53.852Z,969.98
2024-05-09T12:11:53.450Z,969.96
2024-05-09T12:12:53.357Z,969.94
2024-05-09T12:13:53.286Z,969.99
2024-05-09T12:14:53.268Z,969.93
2024-05-09T12:15:53.348Z,969.93
2024-05-09T12:16:53.291Z,970.02
2024-05-09T12:17:53.383Z,969.95
2024-05-09T12:18:53.366Z,969.90
2024-05-09T12:19:53.231Z,969.86
2024-05-09T12:20:53.250Z,969.87
2024-05-09T12:21:53.272Z,969.87
2024-05-09T12:22:53.174Z,969.84
2024-05-09T12:23:53.184Z,969.80
2024-05-09T12:24:53.232Z,969.93
2024-05-09T12:25:53.178Z,969.94
2024-05-09T12:26:53.162Z,969.97
2024-05-09T12:27:53.236Z,969.89
2024-05-09T12:28:53.139Z,969.98
2024-05-09T12:29:53.124Z,970.00
2024-05-09T12:30:53.211Z,969.99
2024-05-09T12:31:53.219Z,970.04
2024-05-09T12:32:53.362Z,970.01
2024-05-09T12:33:53.184Z,969.98
2024-05-09T12:34:53.109Z,970.00